sensor_id;sensor_type;location;lat;lon;timestamp;temperature;humidity
14248;DHT22;7208;49.826;6.004;2023-11-21T00:00:44;9.00;99.90
14248;DHT22;7208;49.826;6.004;2023-11-21T00:03:11;9.00;99.90
14248;DHT22;7208;49.826;6.004;2023-11-21T00:05:40;9.70;99.90
14248;DHT22;7208;49.826;6.004;2023-11-21T00:08:07;8.90;99.90
14248;DHT22;7208;49.826;6.004;2023-11-21T00:10:33;8.90;99.90
14248;DHT22;7208;49.826;6.004;2023-11-21T00:12:59;8.80;99.90
14248;DHT22;7208;49.826;6.004;2023-11-21T00:15:24;8.90;99.90
14248;DHT22;7208;49.826;6.004;2023-11-21T00:17:51;8.80;99.90
14248;DHT22;7208;49.826;6.004;2023-11-21T00:20:17;8.80;99.90
14248;DHT22;7208;49.826;6.004;2023-11-21T00:22:43;8.80;99.90
14248;DHT22;7208;49.826;6.004;2023-11-21T00:25:08;8.80;99.90
14248;DHT22;7208;49.826;6.004;2023-11-21T00:27:35;8.80;99.90
14248;DHT22;7208;49.826;6.004;2023-11-21T00:30:01;8.70;99.90
14248;DHT22;7208;49.826;6.004;2023-11-21T00:32:27;8.70;99.90
14248;DHT22;7208;49.826;6.004;2023-11-21T00:34:52;8.70;99.90
14248;DHT22;7208;49.826;6.004;2023-11-21T00:37:20;8.80;99.90
14248;DHT22;7208;49.826;6.004;2023-11-21T00:39:45;8.70;99.90
14248;DHT22;7208;49.826;6.004;2023-11-21T00:42:11;8.70;99.90
14248;DHT22;7208;49.826;6.004;2023-11-21T00:44:38;8.70;99.90
14248;DHT22;7208;49.826;6.004;2023-11-21T00:47:04;8.70;99.90
14248;DHT22;7208;49.826;6.004;2023-11-21T00:49:30;8.70;99.90
14248;DHT22;7208;49.826;6.004;2023-11-21T00:51:56;8.70;99.90
14248;DHT22;7208;49.826;6.004;2023-11-21T00:54:23;8.60;99.90
14248;DHT22;7208;49.826;6.004;2023-11-21T00:56:49;8.60;99.90
14248;DHT22;7208;49.826;6.004;2023-11-21T00:59:14;8.60;99.90
14248;DHT22;7208;49.826;6.004;2023-11-21T01:01:40;8.60;99.90
14248;DHT22;7208;49.826;6.004;2023-11-21T01:04:07;8.50;99.90
14248;DHT22;7208;49.826;6.004;2023-11-21T01:06:33;8.50;99.90
14248;DHT22;7208;49.826;6.004;2023-11-21T01:08:58;8.50;99.90
14248;DHT22;7208;49.826;6.004;2023-11-21T01:11:24;8.50;99.90
14248;DHT22;7208;49.826;6.004;2023-11-21T01:13:50;8.40;99.90
14248;DHT22;7208;49.826;6.004;2023-11-21T01:16:15;8.40;99.90
14248;DHT22;7208;49.826;6.004;2023-11-21T01:18:41;8.40;99.90
14248;DHT22;7208;49.826;6.004;2023-11-21T01:21:06;8.30;99.90
14248;DHT22;7208;49.826;6.004;2023-11-21T01:23:33;8.30;99.90
14248;DHT22;7208;49.826;6.004;2023-11-21T01:25:58;8.30;99.90
14248;DHT22;7208;49.826;6.004;2023-11-21T01:28:24;8.30;99.90
14248;DHT22;7208;49.826;6.004;2023-11-21T01:30:50;8.30;99.90
14248;DHT22;7208;49.826;6.004;2023-11-21T01:33:15;8.30;99.90
14248;DHT22;7208;49.826;6.004;2023-11-21T01:35:42;8.30;99.90
14248;DHT22;7208;49.826;6.004;2023-11-21T01:38:08;8.20;99.90
14248;DHT22;7208;49.826;6.004;2023-11-21T01:40:34;8.20;99.90
14248;DHT22;7208;49.826;6.004;2023-11-21T01:43:00;8.20;99.90
14248;DHT22;7208;49.826;6.004;2023-11-21T01:45:28;8.20;99.90
14248;DHT22;7208;49.826;6.004;2023-11-21T01:47:56;8.10;99.90
14248;DHT22;7208;49.826;6.004;2023-11-21T01:50:22;8.10;99.90
14248;DHT22;7208;49.826;6.004;2023-11-21T01:52:48;8.20;99.90
14248;DHT22;7208;49.826;6.004;2023-11-21T01:55:16;8.10;99.90
14248;DHT22;7208;49.826;6.004;2023-11-21T01:57:46;8.10;99.90
14248;DHT22;7208;49.826;6.004;2023-11-21T02:00:12;8.10;99.90
14248;DHT22;7208;49.826;6.004;2023-11-21T02:02:45;8.10;99.90
14248;DHT22;7208;49.826;6.004;2023-11-21T02:05:12;8.10;99.90
14248;DHT22;7208;49.826;6.004;2023-11-21T02:07:41;8.00;99.90
14248;DHT22;7208;49.826;6.004;2023-11-21T02:10:08;8.00;99.90
14248;DHT22;7208;49.826;6.004;2023-11-21T02:12:34;8.00;99.90
14248;DHT22;7208;49.826;6.004;2023-11-21T02:15:02;7.90;99.90
14248;DHT22;7208;49.826;6.004;2023-11-21T02:17:30;7.90;99.90
14248;DHT22;7208;49.826;6.004;2023-11-21T02:19:58;7.80;99.90
14248;DHT22;7208;49.826;6.004;2023-11-21T02:22:26;7.80;99.90
14248;DHT22;7208;49.826;6.004;2023-11-21T02:24:53;7.80;99.90
14248;DHT22;7208;49.826;6.004;2023-11-21T02:27:19;7.80;99.90
14248;DHT22;7208;49.826;6.004;2023-11-21T02:29:47;7.80;99.90
14248;DHT22;7208;49.826;6.004;2023-11-21T02:32:13;7.70;99.90
14248;DHT22;7208;49.826;6.004;2023-11-21T02:34:38;7.70;99.90
14248;DHT22;7208;49.826;6.004;2023-11-21T02:37:04;7.70;99.90
14248;DHT22;7208;49.826;6.004;2023-11-21T02:39:31;7.70;99.90
14248;DHT22;7208;49.826;6.004;2023-11-21T02:41:57;7.70;99.90
14248;DHT22;7208;49.826;6.004;2023-11-21T02:44:23;7.70;99.90
14248;DHT22;7208;49.826;6.004;2023-11-21T02:46:48;7.70;99.90
14248;DHT22;7208;49.826;6.004;2023-11-21T02:49:14;7.70;99.90
14248;DHT22;7208;49.826;6.004;2023-11-21T02:51:39;7.70;99.90
14248;DHT22;7208;49.826;6.004;2023-11-21T02:54:05;7.70;99.90
14248;DHT22;7208;49.826;6.004;2023-11-21T02:56:32;7.70;99.90
14248;DHT22;7208;49.826;6.004;2023-11-21T02:59:00;7.70;99.90
14248;DHT22;7208;49.826;6.004;2023-11-21T03:01:26;7.70;99.90
14248;DHT22;7208;49.826;6.004;2023-11-21T03:03:53;7.60;99.90
14248;DHT22;7208;49.826;6.004;2023-11-21T03:06:22;7.60;99.90
14248;DHT22;7208;49.826;6.004;2023-11-21T03:08:48;7.60;99.90
14248;DHT22;7208;49.826;6.004;2023-11-21T03:11:14;7.60;99.90
14248;DHT22;7208;49.826;6.004;2023-11-21T03:13:40;7.60;99.90
14248;DHT22;7208;49.826;6.004;2023-11-21T03:16:11;7.60;99.90
14248;DHT22;7208;49.826;6.004;2023-11-21T03:18:38;7.60;99.90
14248;DHT22;7208;49.826;6.004;2023-11-21T03:21:07;7.60;99.90
14248;DHT22;7208;49.826;6.004;2023-11-21T03:23:36;7.50;99.90
14248;DHT22;7208;49.826;6.004;2023-11-21T03:26:03;7.60;99.90
14248;DHT22;7208;49.826;6.004;2023-11-21T03:28:29;7.50;99.90
14248;DHT22;7208;49.826;6.004;2023-11-21T03:30:55;7.50;99.90
14248;DHT22;7208;49.826;6.004;2023-11-21T03:33:21;7.60;99.90
14248;DHT22;7208;49.826;6.004;2023-11-21T03:35:48;7.60;99.90
14248;DHT22;7208;49.826;6.004;2023-11-21T03:38:14;7.50;99.90
14248;DHT22;7208;49.826;6.004;2023-11-21T03:40:41;7.50;99.90
14248;DHT22;7208;49.826;6.004;2023-11-21T03:43:07;7.50;99.90
14248;DHT22;7208;49.826;6.004;2023-11-21T03:45:32;7.50;99.90
14248;DHT22;7208;49.826;6.004;2023-11-21T03:47:58;7.50;99.90
14248;DHT22;7208;49.826;6.004;2023-11-21T03:50:28;7.50;99.90
14248;DHT22;7208;49.826;6.004;2023-11-21T03:52:54;7.50;99.90
14248;DHT22;7208;49.826;6.004;2023-11-21T03:55:19;7.50;99.90
14248;DHT22;7208;49.826;6.004;2023-11-21T03:57:45;7.50;99.90
14248;DHT22;7208;49.826;6.004;2023-11-21T04:00:11;7.50;99.90
14248;DHT22;7208;49.826;6.004;2023-11-21T04:02:37;7.50;99.90
14248;DHT22;7208;49.826;6.004;2023-11-21T04:05:03;7.50;99.90
14248;DHT22;7208;49.826;6.004;2023-11-21T04:07:28;7.50;99.90
14248;DHT22;7208;49.826;6.004;2023-11-21T04:09:54;7.50;99.90
14248;DHT22;7208;49.826;6.004;2023-11-21T04:12:20;7.50;99.90
14248;DHT22;7208;49.826;6.004;2023-11-21T04:14:46;7.50;99.90
14248;DHT22;7208;49.826;6.004;2023-11-21T04:17:11;7.50;99.90
14248;DHT22;7208;49.826;6.004;2023-11-21T04:19:37;7.40;99.90
14248;DHT22;7208;49.826;6.004;2023-11-21T04:22:02;7.50;99.90
14248;DHT22;7208;49.826;6.004;2023-11-21T04:24:29;7.40;99.90
14248;DHT22;7208;49.826;6.004;2023-11-21T04:26:55;7.40;99.90
14248;DHT22;7208;49.826;6.004;2023-11-21T04:29:20;7.50;99.90
14248;DHT22;7208;49.826;6.004;2023-11-21T04:31:46;7.40;99.90
14248;DHT22;7208;49.826;6.004;2023-11-21T04:34:14;7.40;99.90
14248;DHT22;7208;49.826;6.004;2023-11-21T04:36:40;7.40;99.90
14248;DHT22;7208;49.826;6.004;2023-11-21T04:39:05;7.40;99.90
14248;DHT22;7208;49.826;6.004;2023-11-21T04:41:32;7.40;99.90
14248;DHT22;7208;49.826;6.004;2023-11-21T04:43:58;7.30;99.90
14248;DHT22;7208;49.826;6.004;2023-11-21T04:46:26;7.30;99.90
14248;DHT22;7208;49.826;6.004;2023-11-21T04:48:52;7.30;99.90
14248;DHT22;7208;49.826;6.004;2023-11-21T04:51:17;7.30;99.90
14248;DHT22;7208;49.826;6.004;2023-11-21T04:53:43;7.30;99.90
14248;DHT22;7208;49.826;6.004;2023-11-21T04:56:09;7.30;99.90
14248;DHT22;7208;49.826;6.004;2023-11-21T04:58:34;7.30;99.90
14248;DHT22;7208;49.826;6.004;2023-11-21T05:01:01;7.30;99.90
14248;DHT22;7208;49.826;6.004;2023-11-21T05:03:26;7.30;99.90
14248;DHT22;7208;49.826;6.004;2023-11-21T05:05:52;7.20;99.90
14248;DHT22;7208;49.826;6.004;2023-11-21T05:08:17;7.20;99.90
14248;DHT22;7208;49.826;6.004;2023-11-21T05:10:44;7.20;99.90
14248;DHT22;7208;49.826;6.004;2023-11-21T05:13:10;7.20;99.90
14248;DHT22;7208;49.826;6.004;2023-11-21T05:15:36;7.20;99.90
14248;DHT22;7208;49.826;6.004;2023-11-21T05:18:03;7.20;99.90
14248;DHT22;7208;49.826;6.004;2023-11-21T05:20:28;7.20;99.90
14248;DHT22;7208;49.826;6.004;2023-11-21T05:22:54;7.20;99.90
14248;DHT22;7208;49.826;6.004;2023-11-21T05:25:19;7.20;99.90
14248;DHT22;7208;49.826;6.004;2023-11-21T05:27:46;7.20;99.90
14248;DHT22;7208;49.826;6.004;2023-11-21T05:30:12;7.20;99.90
14248;DHT22;7208;49.826;6.004;2023-11-21T05:32:40;7.20;99.90
14248;DHT22;7208;49.826;6.004;2023-11-21T05:35:08;7.10;99.90
14248;DHT22;7208;49.826;6.004;2023-11-21T05:37:37;7.10;99.90
14248;DHT22;7208;49.826;6.004;2023-11-21T05:40:06;7.10;99.90
14248;DHT22;7208;49.826;6.004;2023-11-21T05:42:33;7.10;99.90
14248;DHT22;7208;49.826;6.004;2023-11-21T05:44:58;7.10;99.90
14248;DHT22;7208;49.826;6.004;2023-11-21T05:47:24;7.10;99.90
14248;DHT22;7208;49.826;6.004;2023-11-21T05:49:51;7.00;99.90
14248;DHT22;7208;49.826;6.004;2023-11-21T05:52:17;7.10;99.90
14248;DHT22;7208;49.826;6.004;2023-11-21T05:54:43;7.10;99.90
14248;DHT22;7208;49.826;6.004;2023-11-21T05:57:09;7.10;99.90
14248;DHT22;7208;49.826;6.004;2023-11-21T05:59:35;7.10;99.90
14248;DHT22;7208;49.826;6.004;2023-11-21T06:02:00;7.10;99.90
14248;DHT22;7208;49.826;6.004;2023-11-21T06:04:27;7.10;99.90
14248;DHT22;7208;49.826;6.004;2023-11-21T06:06:53;7.10;99.90
14248;DHT22;7208;49.826;6.004;2023-11-21T06:09:19;7.20;99.90
14248;DHT22;7208;49.826;6.004;2023-11-21T06:11:46;7.10;99.90
14248;DHT22;7208;49.826;6.004;2023-11-21T06:14:11;7.10;99.90
14248;DHT22;7208;49.826;6.004;2023-11-21T06:16:37;7.20;99.90
14248;DHT22;7208;49.826;6.004;2023-11-21T06:19:02;7.10;99.90
14248;DHT22;7208;49.826;6.004;2023-11-21T06:21:28;7.10;99.90
14248;DHT22;7208;49.826;6.004;2023-11-21T06:23:54;7.00;99.90
14248;DHT22;7208;49.826;6.004;2023-11-21T06:26:22;7.00;99.90
14248;DHT22;7208;49.826;6.004;2023-11-21T06:28:48;7.00;99.90
14248;DHT22;7208;49.826;6.004;2023-11-21T06:31:16;7.00;99.90
14248;DHT22;7208;49.826;6.004;2023-11-21T06:33:42;7.00;99.90
14248;DHT22;7208;49.826;6.004;2023-11-21T06:36:08;7.10;99.90
14248;DHT22;7208;49.826;6.004;2023-11-21T06:38:37;7.20;99.90
14248;DHT22;7208;49.826;6.004;2023-11-21T06:41:02;7.10;99.90
14248;DHT22;7208;49.826;6.004;2023-11-21T06:43:29;7.10;99.90
14248;DHT22;7208;49.826;6.004;2023-11-21T06:45:57;7.20;99.90
14248;DHT22;7208;49.826;6.004;2023-11-21T06:48:22;7.20;99.90
14248;DHT22;7208;49.826;6.004;2023-11-21T06:50:48;7.20;99.90
14248;DHT22;7208;49.826;6.004;2023-11-21T06:53:14;7.20;99.90
14248;DHT22;7208;49.826;6.004;2023-11-21T06:55:40;7.20;99.90
14248;DHT22;7208;49.826;6.004;2023-11-21T06:58:06;7.20;99.90
14248;DHT22;7208;49.826;6.004;2023-11-21T07:00:31;7.30;99.90
14248;DHT22;7208;49.826;6.004;2023-11-21T07:02:57;7.30;99.90
14248;DHT22;7208;49.826;6.004;2023-11-21T07:05:22;7.30;99.90
14248;DHT22;7208;49.826;6.004;2023-11-21T07:07:50;7.30;99.90
14248;DHT22;7208;49.826;6.004;2023-11-21T07:10:16;7.30;99.90
14248;DHT22;7208;49.826;6.004;2023-11-21T07:12:42;7.30;99.90
14248;DHT22;7208;49.826;6.004;2023-11-21T07:15:08;7.40;99.90
14248;DHT22;7208;49.826;6.004;2023-11-21T07:17:37;7.30;99.90
14248;DHT22;7208;49.826;6.004;2023-11-21T07:20:03;7.30;99.90
14248;DHT22;7208;49.826;6.004;2023-11-21T07:22:29;7.40;99.90
14248;DHT22;7208;49.826;6.004;2023-11-21T07:24:55;7.40;99.90
14248;DHT22;7208;49.826;6.004;2023-11-21T07:27:22;7.30;99.90
14248;DHT22;7208;49.826;6.004;2023-11-21T07:29:48;7.40;99.90
14248;DHT22;7208;49.826;6.004;2023-11-21T07:32:16;7.40;99.90
14248;DHT22;7208;49.826;6.004;2023-11-21T07:34:42;7.40;99.90
14248;DHT22;7208;49.826;6.004;2023-11-21T07:37:08;7.40;99.90
14248;DHT22;7208;49.826;6.004;2023-11-21T07:39:35;7.40;99.90
14248;DHT22;7208;49.826;6.004;2023-11-21T07:42:02;7.40;99.90
14248;DHT22;7208;49.826;6.004;2023-11-21T07:44:28;7.40;99.90
14248;DHT22;7208;49.826;6.004;2023-11-21T07:46:54;7.40;99.90
14248;DHT22;7208;49.826;6.004;2023-11-21T07:49:26;7.40;99.90
14248;DHT22;7208;49.826;6.004;2023-11-21T07:51:52;7.40;99.90
14248;DHT22;7208;49.826;6.004;2023-11-21T07:54:18;7.40;99.90
14248;DHT22;7208;49.826;6.004;2023-11-21T07:56:43;7.40;99.90
14248;DHT22;7208;49.826;6.004;2023-11-21T07:59:09;7.40;99.90
14248;DHT22;7208;49.826;6.004;2023-11-21T08:01:35;7.40;99.90
14248;DHT22;7208;49.826;6.004;2023-11-21T08:04:00;7.50;99.90
14248;DHT22;7208;49.826;6.004;2023-11-21T08:06:29;7.50;99.90
14248;DHT22;7208;49.826;6.004;2023-11-21T08:08:56;7.50;99.90
14248;DHT22;7208;49.826;6.004;2023-11-21T08:11:22;7.50;99.90
14248;DHT22;7208;49.826;6.004;2023-11-21T08:13:47;7.60;99.90
14248;DHT22;7208;49.826;6.004;2023-11-21T08:16:13;7.60;99.90
14248;DHT22;7208;49.826;6.004;2023-11-21T08:18:39;7.60;99.90
14248;DHT22;7208;49.826;6.004;2023-11-21T08:21:06;7.60;99.90
14248;DHT22;7208;49.826;6.004;2023-11-21T08:23:33;7.70;99.90
14248;DHT22;7208;49.826;6.004;2023-11-21T08:25:59;7.70;99.90
14248;DHT22;7208;49.826;6.004;2023-11-21T08:28:25;7.70;99.90
14248;DHT22;7208;49.826;6.004;2023-11-21T08:30:53;7.80;99.90
14248;DHT22;7208;49.826;6.004;2023-11-21T08:33:22;7.80;99.90
14248;DHT22;7208;49.826;6.004;2023-11-21T08:35:48;7.80;99.90
14248;DHT22;7208;49.826;6.004;2023-11-21T08:38:14;7.80;99.90
14248;DHT22;7208;49.826;6.004;2023-11-21T08:40:39;7.80;99.90
14248;DHT22;7208;49.826;6.004;2023-11-21T08:43:05;7.90;99.90
14248;DHT22;7208;49.826;6.004;2023-11-21T08:45:31;7.90;99.90
14248;DHT22;7208;49.826;6.004;2023-11-21T08:47:59;8.00;99.90
14248;DHT22;7208;49.826;6.004;2023-11-21T08:50:25;8.00;99.90
14248;DHT22;7208;49.826;6.004;2023-11-21T08:52:51;8.00;99.90
14248;DHT22;7208;49.826;6.004;2023-11-21T08:55:16;8.00;99.90
14248;DHT22;7208;49.826;6.004;2023-11-21T08:57:44;8.00;99.90
14248;DHT22;7208;49.826;6.004;2023-11-21T09:00:12;8.10;99.90
14248;DHT22;7208;49.826;6.004;2023-11-21T09:02:41;8.10;99.90
14248;DHT22;7208;49.826;6.004;2023-11-21T09:05:13;8.20;99.90
14248;DHT22;7208;49.826;6.004;2023-11-21T09:07:40;8.20;99.90
14248;DHT22;7208;49.826;6.004;2023-11-21T09:10:07;8.30;99.90
14248;DHT22;7208;49.826;6.004;2023-11-21T09:12:33;8.30;99.90
14248;DHT22;7208;49.826;6.004;2023-11-21T09:15:02;8.40;99.90
14248;DHT22;7208;49.826;6.004;2023-11-21T09:17:27;8.40;99.90
14248;DHT22;7208;49.826;6.004;2023-11-21T09:19:53;8.50;99.90
14248;DHT22;7208;49.826;6.004;2023-11-21T09:22:19;8.50;99.90
14248;DHT22;7208;49.826;6.004;2023-11-21T09:24:45;8.60;99.90
14248;DHT22;7208;49.826;6.004;2023-11-21T09:27:10;8.70;99.90
14248;DHT22;7208;49.826;6.004;2023-11-21T09:29:36;8.70;99.90
14248;DHT22;7208;49.826;6.004;2023-11-21T09:32:04;8.70;99.90
14248;DHT22;7208;49.826;6.004;2023-11-21T09:34:33;8.70;99.90
14248;DHT22;7208;49.826;6.004;2023-11-21T09:37:05;8.90;99.90
14248;DHT22;7208;49.826;6.004;2023-11-21T09:39:35;8.80;99.90
14248;DHT22;7208;49.826;6.004;2023-11-21T09:42:15;8.90;99.90
14248;DHT22;7208;49.826;6.004;2023-11-21T09:44:58;9.00;99.90
14248;DHT22;7208;49.826;6.004;2023-11-21T09:47:26;9.00;99.90
14248;DHT22;7208;49.826;6.004;2023-11-21T09:49:54;9.10;99.90
14248;DHT22;7208;49.826;6.004;2023-11-21T09:52:26;9.10;99.90
14248;DHT22;7208;49.826;6.004;2023-11-21T09:54:53;9.10;99.90
14248;DHT22;7208;49.826;6.004;2023-11-21T09:57:24;9.20;99.90
14248;DHT22;7208;49.826;6.004;2023-11-21T09:59:55;9.20;99.90
14248;DHT22;7208;49.826;6.004;2023-11-21T10:02:28;9.20;99.90
14248;DHT22;7208;49.826;6.004;2023-11-21T10:04:55;9.30;99.90
14248;DHT22;7208;49.826;6.004;2023-11-21T10:07:22;9.40;99.90
14248;DHT22;7208;49.826;6.004;2023-11-21T10:09:51;9.40;99.90
14248;DHT22;7208;49.826;6.004;2023-11-21T10:12:17;9.30;99.90
14248;DHT22;7208;49.826;6.004;2023-11-21T10:14:43;9.30;99.90
14248;DHT22;7208;49.826;6.004;2023-11-21T10:17:14;9.30;99.90
14248;DHT22;7208;49.826;6.004;2023-11-21T10:19:42;9.40;99.90
14248;DHT22;7208;49.826;6.004;2023-11-21T10:22:08;9.40;99.90
14248;DHT22;7208;49.826;6.004;2023-11-21T10:24:35;9.50;99.90
14248;DHT22;7208;49.826;6.004;2023-11-21T10:27:02;9.60;99.90
14248;DHT22;7208;49.826;6.004;2023-11-21T10:29:31;9.60;99.90
14248;DHT22;7208;49.826;6.004;2023-11-21T10:32:02;9.60;99.90
14248;DHT22;7208;49.826;6.004;2023-11-21T10:34:27;9.60;99.90
14248;DHT22;7208;49.826;6.004;2023-11-21T10:36:53;9.60;99.90
14248;DHT22;7208;49.826;6.004;2023-11-21T10:39:20;9.60;99.90
14248;DHT22;7208;49.826;6.004;2023-11-21T10:41:47;9.50;99.90
14248;DHT22;7208;49.826;6.004;2023-11-21T10:44:17;9.50;99.90
14248;DHT22;7208;49.826;6.004;2023-11-21T10:46:48;9.40;99.90
14248;DHT22;7208;49.826;6.004;2023-11-21T10:49:20;9.50;99.90
14248;DHT22;7208;49.826;6.004;2023-11-21T10:51:46;9.60;99.90
14248;DHT22;7208;49.826;6.004;2023-11-21T10:54:20;9.50;99.90
14248;DHT22;7208;49.826;6.004;2023-11-21T10:56:49;9.50;99.90
14248;DHT22;7208;49.826;6.004;2023-11-21T10:59:16;9.50;99.90
14248;DHT22;7208;49.826;6.004;2023-11-21T11:01:45;9.60;99.90
14248;DHT22;7208;49.826;6.004;2023-11-21T11:04:12;9.60;99.90
14248;DHT22;7208;49.826;6.004;2023-11-21T11:06:54;9.70;99.90
14248;DHT22;7208;49.826;6.004;2023-11-21T11:09:20;9.80;99.90
14248;DHT22;7208;49.826;6.004;2023-11-21T11:11:46;9.90;99.90
14248;DHT22;7208;49.826;6.004;2023-11-21T11:14:13;10.00;99.90
14248;DHT22;7208;49.826;6.004;2023-11-21T11:16:39;10.00;99.90
14248;DHT22;7208;49.826;6.004;2023-11-21T11:19:09;10.00;99.90
14248;DHT22;7208;49.826;6.004;2023-11-21T11:29:50;9.80;99.90
14248;DHT22;7208;49.826;6.004;2023-11-21T11:35:19;9.90;99.90
14248;DHT22;7208;49.826;6.004;2023-11-21T11:37:49;9.90;99.90
14248;DHT22;7208;49.826;6.004;2023-11-21T11:40:15;9.90;99.90
14248;DHT22;7208;49.826;6.004;2023-11-21T11:42:56;9.90;99.90
14248;DHT22;7208;49.826;6.004;2023-11-21T11:45:26;9.90;99.90
14248;DHT22;7208;49.826;6.004;2023-11-21T11:47:57;9.90;99.90
14248;DHT22;7208;49.826;6.004;2023-11-21T11:50:23;10.00;99.90
14248;DHT22;7208;49.826;6.004;2023-11-21T11:52:51;10.00;99.90
14248;DHT22;7208;49.826;6.004;2023-11-21T11:55:19;10.10;99.90
14248;DHT22;7208;49.826;6.004;2023-11-21T11:57:55;10.00;99.90
14248;DHT22;7208;49.826;6.004;2023-11-21T12:00:41;9.90;99.90
14248;DHT22;7208;49.826;6.004;2023-11-21T12:03:08;9.90;99.90
14248;DHT22;7208;49.826;6.004;2023-11-21T12:05:35;9.90;99.90
14248;DHT22;7208;49.826;6.004;2023-11-21T12:08:05;9.90;99.90
14248;DHT22;7208;49.826;6.004;2023-11-21T12:10:33;9.80;99.90
14248;DHT22;7208;49.826;6.004;2023-11-21T12:13:05;9.80;99.90
14248;DHT22;7208;49.826;6.004;2023-11-21T12:15:33;9.70;99.90
14248;DHT22;7208;49.826;6.004;2023-11-21T12:17:59;9.80;99.90
14248;DHT22;7208;49.826;6.004;2023-11-21T12:20:25;9.80;99.90
14248;DHT22;7208;49.826;6.004;2023-11-21T12:22:54;9.80;99.90
14248;DHT22;7208;49.826;6.004;2023-11-21T12:25:22;9.80;99.90
14248;DHT22;7208;49.826;6.004;2023-11-21T12:27:49;9.90;99.90
14248;DHT22;7208;49.826;6.004;2023-11-21T12:30:16;9.90;99.90
14248;DHT22;7208;49.826;6.004;2023-11-21T12:32:43;9.90;99.90
14248;DHT22;7208;49.826;6.004;2023-11-21T12:35:10;9.90;99.90
14248;DHT22;7208;49.826;6.004;2023-11-21T12:37:39;9.90;99.90
14248;DHT22;7208;49.826;6.004;2023-11-21T12:40:06;9.90;99.90
14248;DHT22;7208;49.826;6.004;2023-11-21T12:42:41;9.90;99.90
14248;DHT22;7208;49.826;6.004;2023-11-21T12:47:37;9.80;99.90
14248;DHT22;7208;49.826;6.004;2023-11-21T12:50:03;9.80;99.90
14248;DHT22;7208;49.826;6.004;2023-11-21T12:52:32;9.80;99.90
14248;DHT22;7208;49.826;6.004;2023-11-21T12:54:58;9.90;99.90
14248;DHT22;7208;49.826;6.004;2023-11-21T12:57:27;9.90;99.90
14248;DHT22;7208;49.826;6.004;2023-11-21T12:59:57;9.90;99.90
14248;DHT22;7208;49.826;6.004;2023-11-21T13:02:26;10.00;99.90
14248;DHT22;7208;49.826;6.004;2023-11-21T13:04:53;10.00;99.90
14248;DHT22;7208;49.826;6.004;2023-11-21T13:07:19;10.00;99.90
14248;DHT22;7208;49.826;6.004;2023-11-21T13:09:46;10.00;99.90
14248;DHT22;7208;49.826;6.004;2023-11-21T13:12:12;10.00;99.90
14248;DHT22;7208;49.826;6.004;2023-11-21T13:14:40;10.00;99.90
14248;DHT22;7208;49.826;6.004;2023-11-21T13:17:05;10.10;99.90
14248;DHT22;7208;49.826;6.004;2023-11-21T13:19:31;10.10;99.90
14248;DHT22;7208;49.826;6.004;2023-11-21T13:21:57;10.10;99.90
14248;DHT22;7208;49.826;6.004;2023-11-21T13:24:24;10.10;99.90
14248;DHT22;7208;49.826;6.004;2023-11-21T13:26:50;10.10;99.90
14248;DHT22;7208;49.826;6.004;2023-11-21T13:29:16;10.00;99.90
14248;DHT22;7208;49.826;6.004;2023-11-21T13:31:42;9.90;99.90
14248;DHT22;7208;49.826;6.004;2023-11-21T13:34:08;9.90;99.90
14248;DHT22;7208;49.826;6.004;2023-11-21T13:36:34;9.80;99.90
14248;DHT22;7208;49.826;6.004;2023-11-21T13:39:00;9.90;99.90
14248;DHT22;7208;49.826;6.004;2023-11-21T13:41:33;9.90;99.90
14248;DHT22;7208;49.826;6.004;2023-11-21T13:43:59;9.90;99.90
14248;DHT22;7208;49.826;6.004;2023-11-21T13:46:52;9.90;99.90
14248;DHT22;7208;49.826;6.004;2023-11-21T13:49:18;9.90;99.90
14248;DHT22;7208;49.826;6.004;2023-11-21T13:51:46;9.80;99.90
14248;DHT22;7208;49.826;6.004;2023-11-21T13:54:16;9.70;99.90
14248;DHT22;7208;49.826;6.004;2023-11-21T13:56:42;9.80;99.90
14248;DHT22;7208;49.826;6.004;2023-11-21T13:59:10;9.90;99.90
14248;DHT22;7208;49.826;6.004;2023-11-21T14:01:46;10.10;99.90
14248;DHT22;7208;49.826;6.004;2023-11-21T14:04:21;10.40;99.90
14248;DHT22;7208;49.826;6.004;2023-11-21T14:07:18;10.60;99.90
14248;DHT22;7208;49.826;6.004;2023-11-21T14:10:10;10.60;99.90
14248;DHT22;7208;49.826;6.004;2023-11-21T14:12:39;10.50;99.90
14248;DHT22;7208;49.826;6.004;2023-11-21T14:15:08;10.60;99.90
14248;DHT22;7208;49.826;6.004;2023-11-21T14:17:35;10.60;99.90
14248;DHT22;7208;49.826;6.004;2023-11-21T14:20:03;10.50;99.90
14248;DHT22;7208;49.826;6.004;2023-11-21T14:22:30;10.40;99.90
14248;DHT22;7208;49.826;6.004;2023-11-21T14:24:56;10.30;99.90
14248;DHT22;7208;49.826;6.004;2023-11-21T14:27:25;10.20;99.90
14248;DHT22;7208;49.826;6.004;2023-11-21T14:29:51;10.10;99.90
14248;DHT22;7208;49.826;6.004;2023-11-21T14:32:18;10.10;99.90
14248;DHT22;7208;49.826;6.004;2023-11-21T14:34:43;10.00;99.90
14248;DHT22;7208;49.826;6.004;2023-11-21T14:37:12;9.90;99.90
14248;DHT22;7208;49.826;6.004;2023-11-21T14:39:39;9.90;99.90
14248;DHT22;7208;49.826;6.004;2023-11-21T14:42:10;9.80;99.90
14248;DHT22;7208;49.826;6.004;2023-11-21T14:44:35;9.80;99.90
14248;DHT22;7208;49.826;6.004;2023-11-21T14:47:05;9.70;99.90
14248;DHT22;7208;49.826;6.004;2023-11-21T14:49:38;9.70;99.90
14248;DHT22;7208;49.826;6.004;2023-11-21T14:52:21;9.70;99.90
14248;DHT22;7208;49.826;6.004;2023-11-21T14:55:00;9.70;99.90
14248;DHT22;7208;49.826;6.004;2023-11-21T14:58:04;9.60;99.90
14248;DHT22;7208;49.826;6.004;2023-11-21T15:00:30;9.60;99.90
14248;DHT22;7208;49.826;6.004;2023-11-21T15:03:00;9.60;99.90
14248;DHT22;7208;49.826;6.004;2023-11-21T15:05:26;9.60;99.90
14248;DHT22;7208;49.826;6.004;2023-11-21T15:07:53;9.60;99.90
14248;DHT22;7208;49.826;6.004;2023-11-21T15:10:26;9.50;99.90
14248;DHT22;7208;49.826;6.004;2023-11-21T15:13:04;9.50;99.90
14248;DHT22;7208;49.826;6.004;2023-11-21T15:15:30;9.50;99.90
14248;DHT22;7208;49.826;6.004;2023-11-21T15:17:59;9.50;99.90
14248;DHT22;7208;49.826;6.004;2023-11-21T15:20:25;9.40;99.90
14248;DHT22;7208;49.826;6.004;2023-11-21T15:22:52;9.40;99.90
14248;DHT22;7208;49.826;6.004;2023-11-21T15:25:17;9.40;99.90
14248;DHT22;7208;49.826;6.004;2023-11-21T15:27:43;9.30;99.90
14248;DHT22;7208;49.826;6.004;2023-11-21T15:30:09;9.30;99.90
14248;DHT22;7208;49.826;6.004;2023-11-21T15:32:35;9.20;99.90
14248;DHT22;7208;49.826;6.004;2023-11-21T15:35:00;9.20;99.90
14248;DHT22;7208;49.826;6.004;2023-11-21T15:37:26;9.10;99.90
14248;DHT22;7208;49.826;6.004;2023-11-21T15:39:54;9.10;99.90
14248;DHT22;7208;49.826;6.004;2023-11-21T15:42:19;9.00;99.90
14248;DHT22;7208;49.826;6.004;2023-11-21T15:44:45;9.00;99.90
14248;DHT22;7208;49.826;6.004;2023-11-21T15:47:10;9.00;99.90
14248;DHT22;7208;49.826;6.004;2023-11-21T15:49:36;9.00;99.90
14248;DHT22;7208;49.826;6.004;2023-11-21T15:52:04;9.00;99.90
14248;DHT22;7208;49.826;6.004;2023-11-21T15:54:31;9.00;99.90
14248;DHT22;7208;49.826;6.004;2023-11-21T15:57:00;8.90;99.90
14248;DHT22;7208;49.826;6.004;2023-11-21T15:59:26;8.90;99.90
14248;DHT22;7208;49.826;6.004;2023-11-21T16:01:57;8.90;99.90
14248;DHT22;7208;49.826;6.004;2023-11-21T16:04:23;8.80;99.90
14248;DHT22;7208;49.826;6.004;2023-11-21T16:06:49;8.80;99.90
14248;DHT22;7208;49.826;6.004;2023-11-21T16:09:15;8.80;99.90
14248;DHT22;7208;49.826;6.004;2023-11-21T16:11:51;8.80;99.90
14248;DHT22;7208;49.826;6.004;2023-11-21T16:14:21;8.70;99.90